Georgetown, KY (40324)

4:22 PM EST on December 18, 2014 (GMT -0500)
Scott County EMA/OHS | Change Station
CLOSE
Current Station
Personal Weather Station
Location: Georgetown, KY
Elevation: 917 ft
Nearby Weather Stations

Elev 917 ft 38.28 °N, 84.57 °W | Updated 2 seconds ago

Overcast
Overcast
33.0 °F
Feels Like 33 °F
N
2.0
Wind Variable Wind from West
Gusts 2.0 mph

Today
High -- | Low -- °F
--% Chance of Precip.
Yesterday
High -- | Low -- °F
Precip. -- in
7:49 AM 5:20 PM
Waning Crescent, 12% visible
Pressure 30.22 in
Visibility 8.0 miles
Clouds Mostly Cloudy 1800 ft
Overcast 8500 ft
Windchill 33 °F
Dew Point 28 °F
Humidity 82%
Rainfall 0.00 in
Snow Depth Not available.
UV 0 out of 12
Pollen .10 out of 12
Air Quality Not available.
Flu Activity Not available.
METAR KLEX 182054Z 34003KT 8SM BKN018 OVC085 M01/M04 A3020 RMK AO2 SLP234 T10061044 55007

More Conditions Fewer Conditions

Pressure 30.22 in
Visibility 8.0 miles
Clouds Mostly Cloudy 1800 ft
Overcast 8500 ft
Windchill 33 °F
Dew Point 28 °F
Humidity 82%
Rainfall 0.00 in
Snow Depth Not available.
UV 0 out of 12
Pollen .10 out of 12
Air Quality Not available.
Flu Activity Not available.
METAR KLEX 182054Z 34003KT 8SM BKN018 OVC085 M01/M04 A3020 RMK AO2 SLP234 T10061044 55007

More Conditions Fewer Conditions

10-Day Weather Forecast

Almanac

Astronomy

Dec. 18, 2014 Rise Set
Actual Time
Civil Twilight
Nautical Twilight
Astronomical Twilight
Moon
Length of Visible Light
Length of Day
Tomorrow will be .
, % of the Moon is Illuminated

Today's Extremes

State Highs State Lows

Community

WunderPhotos

Upload Photos

1,778,997 photos uploaded!

WunderBlogs® & News

Nearby

Air Quality

  Air Quality AQ Index Pollutant
Not available.

Snow Depth

Station Depth Elevation

Earthquake Activity

City Distance Mag. Time & Date
Minimum magnitude displayed is 2.5.

Coastal Water Temperatures

Place Temperature

Nearby Weather Stations